Time;durP1;ratioP1;P1;durP2;ratioP2;P2;SDS_P1;SDS_P2;PMS_P1;PMS_P2;Temp;Humidity;BMP_temperature;BMP_pressure;BME280_temperature;BME280_humidity;BME280_pressure;Samples;Min_cycle;Max_cycle;Signal;HPM_P1;HPM_P2
2024/02/18 00:00:01;;;;;;;13.52;12.32;;;;;;;;;;5034252;28;20469;-83
2024/02/18 00:02:27;;;;;;;12.98;11.82;;;;;;;;;;5034440;28;20498;-84
2024/02/18 00:04:53;;;;;;;14.15;12.75;;;;;;;;;;5034074;28;20405;-83
2024/02/18 00:07:20;;;;;;;13.10;11.70;;;;;;;;;;5033909;28;20367;-83
2024/02/18 00:09:46;;;;;;;13.15;12.02;;;;;;;;;;5034313;28;20386;-83
2024/02/18 00:12:13;;;;;;;13.35;12.15;;;;;;;;;;5033854;28;20435;-83
2024/02/18 00:14:39;;;;;;;12.48;11.40;;;;;;;;;;5033855;28;20876;-83
2024/02/18 00:17:05;;;;;;;12.32;11.25;;;;;;;;;;5034071;28;20865;-83
2024/02/18 00:19:32;;;;;;;12.15;11.05;;;;;;;;;;5016081;28;20474;-83
2024/02/18 00:21:58;;;;;;;13.20;12.10;;;;;;;;;;5034229;28;20435;-84
2024/02/18 00:24:24;;;;;;;12.95;11.80;;;;;;;;;;5033862;28;20847;-83
2024/02/18 00:26:53;;;;;;;13.48;12.30;;;;;;;;;;5033447;28;20375;-83
2024/02/18 00:29:20;;;;;;;13.98;12.68;;;;;;;;;;5033968;28;20930;-82
2024/02/18 00:31:47;;;;;;;12.82;11.73;;;;;;;;;;5033597;28;20398;-84
2024/02/18 00:34:19;;;;;;;12.82;11.73;;;;;;;;;;5032866;28;20379;-83
2024/02/18 00:36:45;;;;;;;12.95;11.75;;;;;;;;;;5033877;28;20406;-83
2024/02/18 00:39:11;;;;;;;12.60;11.50;;;;;;;;;;5033614;28;20409;-83
2024/02/18 00:41:37;;;;;;;13.25;12.05;;;;;;;;;;5033637;28;20475;-83
2024/02/18 00:44:03;;;;;;;15.43;14.02;;;;;;;;;;5033436;28;20916;-83
2024/02/18 00:46:29;;;;;;;15.70;14.40;;;;;;;;;;5033238;28;20379;-84
2024/02/18 00:48:55;;;;;;;16.23;14.82;;;;;;;;;;5031850;28;20750;-83
2024/02/18 00:51:21;;;;;;;13.35;12.10;;;;;;;;;;5033207;28;20386;-83
2024/02/18 00:53:47;;;;;;;13.47;12.17;;;;;;;;;;5033202;28;20383;-83
2024/02/18 00:56:13;;;;;;;14.13;12.80;;;;;;;;;;5033151;28;20386;-83
2024/02/18 00:58:39;;;;;;;14.23;12.93;;;;;;;;;;5033181;28;20741;-83
2024/02/18 01:01:05;;;;;;;15.77;14.17;;;;;;;;;;5033426;28;20379;-83
2024/02/18 01:03:32;;;;;;;16.83;15.13;;;;;;;;;;5033188;28;20753;-83
2024/02/18 01:05:58;;;;;;;15.52;14.02;;;;;;;;;;5033121;28;20735;-83
2024/02/18 01:08:24;;;;;;;15.15;13.65;;;;;;;;;;5032972;28;20398;-83
2024/02/18 01:10:50;;;;;;;14.35;12.98;;;;;;;;;;5032922;28;20458;-83
2024/02/18 01:13:16;;;;;;;13.00;11.90;;;;;;;;;;5033172;28;20383;-84
2024/02/18 01:15:42;;;;;;;13.20;11.97;;;;;;;;;;5033056;28;20879;-83
2024/02/18 01:18:08;;;;;;;14.68;13.20;;;;;;;;;;5033347;28;20466;-84
2024/02/18 01:20:34;;;;;;;15.57;14.07;;;;;;;;;;5033471;28;20389;-83
2024/02/18 01:23:00;;;;;;;13.77;12.48;;;;;;;;;;5033105;28;20418;-83
2024/02/18 01:25:26;;;;;;;13.63;12.40;;;;;;;;;;5032962;28;20457;-83
2024/02/18 01:27:52;;;;;;;13.15;11.95;;;;;;;;;;5032807;28;20431;-83
2024/02/18 01:30:20;;;;;;;13.00;11.80;;;;;;;;;;5032582;28;20454;-83
2024/02/18 01:32:46;;;;;;;12.25;11.02;;;;;;;;;;5032891;28;20433;-83
2024/02/18 01:35:12;;;;;;;13.13;11.93;;;;;;;;;;5032977;28;20472;-83
2024/02/18 01:37:38;;;;;;;13.57;12.27;;;;;;;;;;5032842;28;20490;-83
2024/02/18 01:40:07;;;;;;;13.40;12.20;;;;;;;;;;5036527;28;20386;-83
2024/02/18 01:42:33;;;;;;;12.38;11.30;;;;;;;;;;5036990;28;20406;-83
2024/02/18 01:44:59;;;;;;;12.18;11.13;;;;;;;;;;5036861;28;20379;-83
2024/02/18 01:47:25;;;;;;;13.18;11.98;;;;;;;;;;5036741;28;20379;-83
2024/02/18 01:49:51;;;;;;;11.77;10.77;;;;;;;;;;5036615;28;20384;-83
2024/02/18 01:52:19;;;;;;;12.23;11.13;;;;;;;;;;5036939;28;20385;-83
2024/02/18 01:54:46;;;;;;;11.55;10.45;;;;;;;;;;5036655;28;20445;-83
2024/02/18 01:57:12;;;;;;;11.70;10.60;;;;;;;;;;5036468;28;20894;-83
2024/02/18 01:59:39;;;;;;;11.73;10.73;;;;;;;;;;5036346;28;20398;-83
2024/02/18 02:02:05;;;;;;;12.18;11.15;;;;;;;;;;5036214;28;20893;-83
2024/02/18 02:04:31;;;;;;;11.63;10.63;;;;;;;;;;5036015;28;20486;-83
2024/02/18 02:06:59;;;;;;;12.23;11.13;;;;;;;;;;5036383;28;20379;-83
2024/02/18 02:09:26;;;;;;;11.60;10.68;;;;;;;;;;5036167;28;20379;-83
2024/02/18 02:11:52;;;;;;;12.97;11.77;;;;;;;;;;5036684;28;20796;-84
2024/02/18 02:14:18;;;;;;;13.07;11.88;;;;;;;;;;5036242;28;20391;-83
2024/02/18 02:16:44;;;;;;;12.13;11.02;;;;;;;;;;5036100;28;20379;-83
2024/02/18 02:19:10;;;;;;;11.10;10.20;;;;;;;;;;5035699;28;20407;-83
2024/02/18 02:21:36;;;;;;;11.38;10.40;;;;;;;;;;5035949;28;20402;-83
2024/02/18 02:24:02;;;;;;;12.32;11.18;;;;;;;;;;5036254;28;20379;-83
2024/02/18 02:26:31;;;;;;;12.20;11.10;;;;;;;;;;5035686;28;20375;-83
2024/02/18 02:29:00;;;;;;;11.50;10.47;;;;;;;;;;5035930;28;20394;-83
2024/02/18 02:31:26;;;;;;;12.18;11.18;;;;;;;;;;5036046;28;20379;-83
2024/02/18 02:33:52;;;;;;;11.70;10.73;;;;;;;;;;5035346;28;20872;-83
2024/02/18 02:36:18;;;;;;;12.60;11.55;;;;;;;;;;5035803;28;20849;-83
2024/02/18 02:38:44;;;;;;;11.85;10.85;;;;;;;;;;5035846;28;20379;-83
2024/02/18 02:41:10;;;;;;;12.57;11.38;;;;;;;;;;5035687;28;20415;-83
2024/02/18 02:43:36;;;;;;;11.55;10.55;;;;;;;;;;5035546;28;20405;-83
2024/02/18 02:46:02;;;;;;;12.10;11.00;;;;;;;;;;5035692;28;20445;-83
2024/02/18 02:48:28;;;;;;;11.98;10.88;;;;;;;;;;5035400;28;20375;-83
2024/02/18 02:50:54;;;;;;;12.48;11.35;;;;;;;;;;5035333;28;20394;-83
2024/02/18 02:53:20;;;;;;;11.90;10.70;;;;;;;;;;5035297;28;20447;-83
2024/02/18 02:55:46;;;;;;;11.63;10.63;;;;;;;;;;5035327;28;20834;-83
2024/02/18 02:58:12;;;;;;;11.57;10.50;;;;;;;;;;5035291;28;20390;-83
2024/02/18 03:00:38;;;;;;;12.02;10.93;;;;;;;;;;5035049;28;20390;-83
2024/02/18 03:03:04;;;;;;;10.52;9.73;;;;;;;;;;5035003;28;20419;-83
2024/02/18 03:05:30;;;;;;;10.60;9.70;;;;;;;;;;5034831;28;20411;-83
2024/02/18 03:07:56;;;;;;;10.90;9.80;;;;;;;;;;5034589;28;20394;-83
2024/02/18 03:10:24;;;;;;;10.55;9.65;;;;;;;;;;5034202;28;21369;-83
2024/02/18 03:12:50;;;;;;;10.57;9.68;;;;;;;;;;5035306;28;20376;-83
2024/02/18 03:15:16;;;;;;;10.23;9.43;;;;;;;;;;5034456;28;20383;-83
2024/02/18 03:17:42;;;;;;;10.77;9.77;;;;;;;;;;5035001;28;20425;-83
2024/02/18 03:20:11;;;;;;;10.52;9.63;;;;;;;;;;5034979;28;20383;-83
2024/02/18 03:22:37;;;;;;;10.88;9.98;;;;;;;;;;5034797;28;20475;-83
2024/02/18 03:25:04;;;;;;;10.95;10.05;;;;;;;;;;5034865;28;20434;-83
2024/02/18 03:27:31;;;;;;;10.57;9.77;;;;;;;;;;5034428;28;20379;-83
2024/02/18 03:29:58;;;;;;;10.63;9.73;;;;;;;;;;5034685;28;20379;-83
2024/02/18 03:32:24;;;;;;;10.90;10.00;;;;;;;;;;5034062;28;20398;-82
2024/02/18 03:34:50;;;;;;;10.82;9.93;;;;;;;;;;5034256;28;20756;-83
2024/02/18 03:37:16;;;;;;;10.55;9.65;;;;;;;;;;5034247;28;20383;-83
2024/02/18 03:39:42;;;;;;;10.65;9.65;;;;;;;;;;5034341;28;20391;-83
2024/02/18 03:42:08;;;;;;;10.43;9.52;;;;;;;;;;5034377;28;20415;-83
2024/02/18 03:44:34;;;;;;;10.65;9.75;;;;;;;;;;5034102;28;20375;-83
2024/02/18 03:47:01;;;;;;;10.48;9.52;;;;;;;;;;5034603;28;20390;-83
2024/02/18 03:49:27;;;;;;;10.18;9.18;;;;;;;;;;5034298;28;20394;-83
2024/02/18 03:51:53;;;;;;;10.57;9.70;;;;;;;;;;5034657;28;20379;-83
2024/02/18 03:54:19;;;;;;;10.20;9.23;;;;;;;;;;5034068;28;20448;-83
2024/02/18 03:56:45;;;;;;;9.38;8.57;;;;;;;;;;5033912;28;20529;-82
2024/02/18 03:59:14;;;;;;;9.30;8.60;;;;;;;;;;5034001;28;20387;-83
2024/02/18 04:01:40;;;;;;;10.07;9.18;;;;;;;;;;5034015;28;20411;-83
2024/02/18 04:04:06;;;;;;;9.57;8.68;;;;;;;;;;5033809;28;20405;-83
2024/02/18 04:06:32;;;;;;;9.68;8.88;;;;;;;;;;5034075;28;20448;-82
2024/02/18 04:08:58;;;;;;;9.88;8.98;;;;;;;;;;5034092;28;20935;-83
2024/02/18 04:11:24;;;;;;;9.90;9.00;;;;;;;;;;5033983;28;20414;-83
2024/02/18 04:13:50;;;;;;;10.15;9.20;;;;;;;;;;5033431;28;20458;-83
2024/02/18 04:16:16;;;;;;;9.70;8.80;;;;;;;;;;5033916;28;20438;-83
2024/02/18 04:18:43;;;;;;;9.68;8.88;;;;;;;;;;5033615;28;20375;-83
2024/02/18 04:21:09;;;;;;;9.40;8.60;;;;;;;;;;5033573;28;20415;-83
2024/02/18 04:23:35;;;;;;;8.75;8.05;;;;;;;;;;5033356;28;20484;-83
2024/02/18 04:26:01;;;;;;;9.50;8.70;;;;;;;;;;5033631;28;20375;-83
2024/02/18 04:28:27;;;;;;;9.68;8.68;;;;;;;;;;5033445;28;20391;-82
2024/02/18 04:30:53;;;;;;;9.45;8.65;;;;;;;;;;5033825;28;20760;-83
2024/02/18 04:33:19;;;;;;;9.40;8.60;;;;;;;;;;5017665;28;20395;-82
2024/02/18 04:35:45;;;;;;;9.95;9.05;;;;;;;;;;5033989;28;20391;-83
2024/02/18 04:38:11;;;;;;;9.98;9.18;;;;;;;;;;5033369;28;20394;-82
2024/02/18 04:40:37;;;;;;;9.80;9.00;;;;;;;;;;5032721;28;20984;-82
2024/02/18 04:43:03;;;;;;;9.45;8.65;;;;;;;;;;5026149;28;20403;-82
2024/02/18 04:45:29;;;;;;;9.93;9.02;;;;;;;;;;5033725;28;20394;-82
2024/02/18 04:47:55;;;;;;;10.03;9.13;;;;;;;;;;5033563;28;20383;-82
2024/02/18 04:50:21;;;;;;;10.13;9.32;;;;;;;;;;5033584;28;20789;-82
2024/02/18 04:52:47;;;;;;;10.40;9.45;;;;;;;;;;5033520;28;20474;-83
2024/02/18 04:55:13;;;;;;;10.80;9.70;;;;;;;;;;5033857;28;20926;-83
2024/02/18 04:57:39;;;;;;;10.18;9.20;;;;;;;;;;5034951;28;20383;-83
2024/02/18 05:00:06;;;;;;;9.75;8.95;;;;;;;;;;5017846;28;20870;-82
2024/02/18 05:02:32;;;;;;;9.90;9.07;;;;;;;;;;5034962;28;20406;-82
2024/02/18 05:04:59;;;;;;;8.93;8.23;;;;;;;;;;5034505;28;20403;-82
2024/02/18 05:07:25;;;;;;;10.88;9.93;;;;;;;;;;5033913;28;20454;-82
2024/02/18 05:09:52;;;;;;;8.73;8.02;;;;;;;;;;5015526;28;20402;-82
2024/02/18 05:12:18;;;;;;;9.32;8.52;;;;;;;;;;5032609;28;20445;-82
2024/02/18 05:14:44;;;;;;;9.43;8.63;;;;;;;;;;5032698;28;20398;-82
2024/02/18 05:17:09;;;;;;;9.93;9.13;;;;;;;;;;5032681;28;20387;-82
2024/02/18 05:19:36;;;;;;;10.67;9.67;;;;;;;;;;5033075;28;20490;-82
2024/02/18 05:22:02;;;;;;;9.57;8.70;;;;;;;;;;5032918;28;20399;-82
2024/02/18 05:24:28;;;;;;;10.40;9.50;;;;;;;;;;5033311;28;20379;-82
2024/02/18 05:26:54;;;;;;;10.63;9.73;;;;;;;;;;5032709;28;20375;-82
2024/02/18 05:29:22;;;;;;;10.38;9.38;;;;;;;;;;5032934;28;20470;-82
2024/02/18 05:31:48;;;;;;;10.05;9.25;;;;;;;;;;5032949;28;20394;-82
2024/02/18 05:34:14;;;;;;;10.35;9.40;;;;;;;;;;5033056;28;20399;-82
2024/02/18 05:36:43;;;;;;;10.35;9.45;;;;;;;;;;5032254;28;20463;-82
2024/02/18 05:39:09;;;;;;;9.70;8.90;;;;;;;;;;5032706;28;20391;-82
2024/02/18 05:41:35;;;;;;;10.18;9.27;;;;;;;;;;5032708;28;20395;-82
2024/02/18 05:44:01;;;;;;;10.60;9.70;;;;;;;;;;5032649;28;20422;-82
2024/02/18 05:46:27;;;;;;;10.45;9.50;;;;;;;;;;5033442;28;20460;-82
2024/02/18 05:48:53;;;;;;;9.80;9.00;;;;;;;;;;5032800;28;20462;-82
2024/02/18 05:51:19;;;;;;;10.60;9.80;;;;;;;;;;5032845;28;20860;-82
2024/02/18 05:53:46;;;;;;;10.77;9.67;;;;;;;;;;5032562;28;20964;-81
2024/02/18 05:56:12;;;;;;;10.20;9.30;;;;;;;;;;5032544;28;20383;-82
2024/02/18 05:58:38;;;;;;;10.53;9.57;;;;;;;;;;5032411;28;20389;-82
2024/02/18 06:01:04;;;;;;;11.30;10.30;;;;;;;;;;5014853;28;20474;-82
2024/02/18 06:03:30;;;;;;;10.10;9.20;;;;;;;;;;5032548;28;20421;-82
2024/02/18 06:05:56;;;;;;;9.90;9.00;;;;;;;;;;5032372;28;20419;-82
2024/02/18 06:08:23;;;;;;;10.15;9.25;;;;;;;;;;5032168;28;20376;-82
2024/02/18 06:10:49;;;;;;;10.05;9.25;;;;;;;;;;5032436;28;20471;-82
2024/02/18 06:13:15;;;;;;;9.55;8.75;;;;;;;;;;5032277;28;20821;-81
2024/02/18 06:15:41;;;;;;;11.85;10.73;;;;;;;;;;5032355;28;20383;-82
2024/02/18 06:18:08;;;;;;;10.13;9.32;;;;;;;;;;5032267;28;20391;-82
2024/02/18 06:20:34;;;;;;;10.27;9.33;;;;;;;;;;5032489;28;20696;-82
2024/02/18 06:23:00;;;;;;;10.23;9.32;;;;;;;;;;5031919;28;20417;-82
2024/02/18 06:25:26;;;;;;;9.52;8.52;;;;;;;;;;5034492;28;20733;-82
2024/02/18 06:27:52;;;;;;;9.77;8.93;;;;;;;;;;5035762;28;20376;-82
2024/02/18 06:30:18;;;;;;;11.60;10.40;;;;;;;;;;5035742;28;20859;-82
2024/02/18 06:32:44;;;;;;;10.60;9.50;;;;;;;;;;5035287;28;20470;-82
2024/02/18 06:35:10;;;;;;;9.82;8.93;;;;;;;;;;5035287;28;20379;-82
2024/02/18 06:37:36;;;;;;;9.95;9.05;;;;;;;;;;5035796;28;20397;-82
2024/02/18 06:40:03;;;;;;;10.05;9.15;;;;;;;;;;5036862;28;20375;-82
2024/02/18 06:42:29;;;;;;;11.10;10.10;;;;;;;;;;5036341;28;20418;-82
2024/02/18 06:44:55;;;;;;;11.33;10.33;;;;;;;;;;5036215;28;20375;-82
2024/02/18 06:47:21;;;;;;;11.77;10.68;;;;;;;;;;5035207;28;20865;-82
2024/02/18 06:49:47;;;;;;;12.45;11.25;;;;;;;;;;5035128;28;20435;-84
2024/02/18 06:52:14;;;;;;;12.37;11.27;;;;;;;;;;5035161;28;20475;-83
2024/02/18 06:54:40;;;;;;;11.93;10.82;;;;;;;;;;5034781;28;20387;-82
2024/02/18 06:57:06;;;;;;;11.63;10.60;;;;;;;;;;5035060;28;20390;-82
2024/02/18 06:59:32;;;;;;;12.53;11.23;;;;;;;;;;5034823;28;20416;-82
2024/02/18 07:01:57;;;;;;;12.52;10.93;;;;;;;;;;5034777;28;20501;-82
2024/02/18 07:04:24;;;;;;;10.43;9.43;;;;;;;;;;5035228;28;20411;-82
2024/02/18 07:06:50;;;;;;;11.82;10.73;;;;;;;;;;5034983;28;20805;-82
2024/02/18 07:09:16;;;;;;;12.63;10.15;;;;;;;;;;5034833;28;20745;-82
2024/02/18 07:11:42;;;;;;;11.10;10.20;;;;;;;;;;5035063;28;20376;-83
2024/02/18 07:14:07;;;;;;;13.33;11.93;;;;;;;;;;5035319;28;20434;-82
2024/02/18 07:16:33;;;;;;;11.25;10.25;;;;;;;;;;5017321;28;20391;-82
2024/02/18 07:19:00;;;;;;;73.82;32.65;;;;;;;;;;5034790;28;20853;-82
2024/02/18 07:21:26;;;;;;;12.63;11.32;;;;;;;;;;5034586;28;20379;-82
2024/02/18 07:23:52;;;;;;;11.85;10.75;;;;;;;;;;5034497;28;20809;-82
2024/02/18 07:26:18;;;;;;;12.63;11.43;;;;;;;;;;5034716;28;20390;-83
2024/02/18 07:28:44;;;;;;;11.65;10.65;;;;;;;;;;5034516;28;20441;-81
2024/02/18 07:31:10;;;;;;;11.70;10.70;;;;;;;;;;5034825;28;20387;-81
2024/02/18 07:33:36;;;;;;;11.57;10.50;;;;;;;;;;5034214;28;20861;-80
2024/02/18 07:36:02;;;;;;;11.35;10.35;;;;;;;;;;5033737;28;20470;-81
2024/02/18 07:38:28;;;;;;;11.90;10.88;;;;;;;;;;5034310;28;20394;-81
2024/02/18 07:40:54;;;;;;;13.00;11.65;;;;;;;;;;5034338;28;20395;-81
2024/02/18 07:43:20;;;;;;;13.02;11.93;;;;;;;;;;5034649;28;20414;-81
2024/02/18 07:45:46;;;;;;;13.75;12.52;;;;;;;;;;5034758;28;20379;-81
2024/02/18 07:48:13;;;;;;;13.73;12.40;;;;;;;;;;5033988;28;20379;-81
2024/02/18 07:50:39;;;;;;;13.00;11.80;;;;;;;;;;5034039;28;20383;-81
2024/02/18 07:53:05;;;;;;;12.43;11.32;;;;;;;;;;5034282;28;20733;-81
2024/02/18 07:55:31;;;;;;;12.50;11.30;;;;;;;;;;5034400;28;20382;-81
2024/02/18 07:57:57;;;;;;;12.35;11.20;;;;;;;;;;5034133;28;20461;-81
2024/02/18 08:00:24;;;;;;;11.63;10.73;;;;;;;;;;5034408;28;20470;-81
2024/02/18 08:02:50;;;;;;;12.13;11.13;;;;;;;;;;5034119;28;20959;-81
2024/02/18 08:05:16;;;;;;;12.17;11.17;;;;;;;;;;5033781;28;20482;-81
2024/02/18 08:07:43;;;;;;;11.52;10.52;;;;;;;;;;5033788;28;20713;-81
2024/02/18 08:10:09;;;;;;;11.90;10.80;;;;;;;;;;5033760;28;20391;-81
2024/02/18 08:12:35;;;;;;;11.93;10.75;;;;;;;;;;5034214;28;20418;-81
2024/02/18 08:15:01;;;;;;;12.32;11.23;;;;;;;;;;5034766;28;20457;-81
2024/02/18 08:17:27;;;;;;;12.45;11.35;;;;;;;;;;5033421;28;20379;-80
2024/02/18 08:19:53;;;;;;;12.32;11.32;;;;;;;;;;5033216;28;20459;-81
2024/02/18 08:22:19;;;;;;;12.85;11.75;;;;;;;;;;5033875;28;20502;-81
2024/02/18 08:24:45;;;;;;;12.02;10.93;;;;;;;;;;5033802;28;20699;-81
2024/02/18 08:27:11;;;;;;;14.38;12.85;;;;;;;;;;5033717;28;20411;-81
2024/02/18 08:29:40;;;;;;;13.35;12.15;;;;;;;;;;5033857;28;20433;-81
2024/02/18 08:32:07;;;;;;;13.32;12.13;;;;;;;;;;5033513;28;20413;-80
2024/02/18 08:34:33;;;;;;;14.55;13.15;;;;;;;;;;5033784;28;20386;-82
2024/02/18 08:36:59;;;;;;;12.98;11.77;;;;;;;;;;5034004;28;20418;-82
2024/02/18 08:39:25;;;;;;;12.68;11.57;;;;;;;;;;5033688;28;20422;-82
2024/02/18 08:41:51;;;;;;;14.00;12.32;;;;;;;;;;5033480;28;20407;-82
2024/02/18 08:44:18;;;;;;;14.82;13.43;;;;;;;;;;5033407;28;20383;-81
2024/02/18 08:46:45;;;;;;;13.82;12.55;;;;;;;;;;5033691;28;20496;-82
2024/02/18 08:49:11;;;;;;;13.75;12.45;;;;;;;;;;5033177;28;20383;-82
2024/02/18 08:51:39;;;;;;;14.20;12.80;;;;;;;;;;5033485;28;20915;-81
2024/02/18 08:54:06;;;;;;;14.05;12.75;;;;;;;;;;5033728;28;20403;-82
2024/02/18 08:56:32;;;;;;;15.50;14.00;;;;;;;;;;5033267;28;20440;-81
2024/02/18 08:58:58;;;;;;;14.80;13.30;;;;;;;;;;5033603;28;20825;-82
2024/02/18 09:01:24;;;;;;;15.02;13.63;;;;;;;;;;5033561;28;20386;-82
2024/02/18 09:03:50;;;;;;;15.80;14.20;;;;;;;;;;5033611;28;20403;-83
2024/02/18 09:06:16;;;;;;;16.58;14.88;;;;;;;;;;5033780;28;20865;-81
2024/02/18 09:08:42;;;;;;;18.00;16.13;;;;;;;;;;5033461;28;20382;-81
2024/02/18 09:11:08;;;;;;;17.10;15.43;;;;;;;;;;5033177;28;20868;-82
2024/02/18 09:13:34;;;;;;;18.38;16.45;;;;;;;;;;5033483;28;20413;-83
2024/02/18 09:16:00;;;;;;;18.27;16.38;;;;;;;;;;5033770;28;20486;-84
2024/02/18 09:18:26;;;;;;;17.40;15.68;;;;;;;;;;5033331;28;20379;-82
2024/02/18 09:20:52;;;;;;;18.58;16.67;;;;;;;;;;5032847;28;20734;-83
2024/02/18 09:23:18;;;;;;;19.95;17.85;;;;;;;;;;5032820;28;20402;-82
2024/02/18 09:25:44;;;;;;;21.27;18.98;;;;;;;;;;5033665;28;20800;-81
2024/02/18 09:28:11;;;;;;;24.17;19.37;;;;;;;;;;5033780;28;20423;-83
2024/02/18 09:30:37;;;;;;;19.92;17.83;;;;;;;;;;5032962;28;20375;-83
2024/02/18 09:33:05;;;;;;;22.83;19.30;;;;;;;;;;5034654;28;20498;-83
2024/02/18 09:35:31;;;;;;;24.07;19.30;;;;;;;;;;5033947;28;20824;-84
2024/02/18 09:37:57;;;;;;;21.88;18.80;;;;;;;;;;5034377;28;20391;-83
2024/02/18 09:40:23;;;;;;;23.00;19.05;;;;;;;;;;5034735;28;20387;-83
2024/02/18 09:42:53;;;;;;;19.93;17.83;;;;;;;;;;5034548;28;20410;-83
2024/02/18 09:45:28;;;;;;;22.65;18.58;;;;;;;;;;5034986;28;20403;-84
2024/02/18 09:47:55;;;;;;;19.90;17.92;;;;;;;;;;5034329;28;20394;-84
2024/02/18 09:50:21;;;;;;;20.10;18.10;;;;;;;;;;5034721;28;20474;-84
2024/02/18 09:52:48;;;;;;;19.23;17.23;;;;;;;;;;5034700;28;20433;-84
2024/02/18 09:55:15;;;;;;;21.42;18.58;;;;;;;;;;5034109;28;20387;-84
2024/02/18 09:57:41;;;;;;;19.45;17.45;;;;;;;;;;5032453;28;20401;-83
2024/02/18 10:00:11;;;;;;;22.92;19.92;;;;;;;;;;5034059;28;20862;-84
2024/02/18 10:02:37;;;;;;;21.42;19.27;;;;;;;;;;5036566;28;20480;-84
2024/02/18 10:05:04;;;;;;;23.02;19.58;;;;;;;;;;5037618;28;20434;-84
2024/02/18 10:07:31;;;;;;;20.80;18.55;;;;;;;;;;5036996;28;20466;-84
2024/02/18 10:09:58;;;;;;;22.42;20.02;;;;;;;;;;5037017;28;20375;-84
2024/02/18 10:12:25;;;;;;;22.95;19.95;;;;;;;;;;5037496;28;20391;-83
2024/02/18 10:14:58;;;;;;;22.70;20.17;;;;;;;;;;5036678;28;20390;-84
2024/02/18 10:17:26;;;;;;;21.77;19.45;;;;;;;;;;5036318;28;20422;-84
2024/02/18 10:19:52;;;;;;;23.25;20.15;;;;;;;;;;5037241;28;20386;-84
2024/02/18 10:22:18;;;;;;;24.85;20.73;;;;;;;;;;5037911;28;20418;-84
2024/02/18 10:24:44;;;;;;;24.90;21.38;;;;;;;;;;5036448;28;20383;-84
2024/02/18 10:27:10;;;;;;;24.42;21.80;;;;;;;;;;5037310;28;20437;-83
2024/02/18 10:29:37;;;;;;;27.58;23.55;;;;;;;;;;5038091;28;20375;-84
2024/02/18 10:32:03;;;;;;;25.20;22.50;;;;;;;;;;5037078;28;20579;-82
2024/02/18 10:34:29;;;;;;;25.52;22.70;;;;;;;;;;5037763;28;20790;-83
2024/02/18 10:36:58;;;;;;;24.83;22.13;;;;;;;;;;5037237;28;20391;-84
2024/02/18 10:39:27;;;;;;;26.87;22.43;;;;;;;;;;5037934;28;20881;-84
2024/02/18 10:41:56;;;;;;;29.65;22.98;;;;;;;;;;5041910;28;22263;-84
2024/02/18 10:44:22;;;;;;;25.80;22.08;;;;;;;;;;5022547;28;20847;-84
2024/02/18 10:46:48;;;;;;;25.97;22.63;;;;;;;;;;5017307;28;20423;-85
2024/02/18 10:49:19;;;;;;;25.23;22.57;;;;;;;;;;5017290;28;20965;-85
2024/02/18 10:51:49;;;;;;;28.73;23.37;;;;;;;;;;5017858;28;20539;-85
2024/02/18 10:54:26;;;;;;;29.45;24.95;;;;;;;;;;5016197;28;20434;-84
2024/02/18 10:56:53;;;;;;;29.85;25.48;;;;;;;;;;5016624;28;20898;-85
2024/02/18 10:59:31;;;;;;;27.83;24.50;;;;;;;;;;5016798;28;20425;-84
2024/02/18 11:02:01;;;;;;;27.50;24.35;;;;;;;;;;5016710;28;20487;-84
2024/02/18 11:04:27;;;;;;;28.10;24.92;;;;;;;;;;5015745;28;20860;-84
2024/02/18 11:06:55;;;;;;;31.75;24.40;;;;;;;;;;5016810;28;20820;-84
2024/02/18 11:09:22;;;;;;;29.42;24.75;;;;;;;;;;5016899;28;20906;-84
2024/02/18 11:11:50;;;;;;;31.37;24.93;;;;;;;;;;5017124;28;20974;-85
2024/02/18 11:14:16;;;;;;;28.00;24.58;;;;;;;;;;5016555;28;20859;-83
2024/02/18 11:16:43;;;;;;;31.25;26.30;;;;;;;;;;5016188;28;20442;-85
2024/02/18 11:19:09;;;;;;;32.38;26.77;;;;;;;;;;5016190;28;20385;-85
2024/02/18 11:21:35;;;;;;;28.85;25.50;;;;;;;;;;5016461;28;20377;-83
2024/02/18 11:24:02;;;;;;;29.92;25.88;;;;;;;;;;5016719;28;20446;-85
2024/02/18 11:26:28;;;;;;;27.48;23.95;;;;;;;;;;5016673;28;20377;-84
2024/02/18 11:29:00;;;;;;;29.37;25.10;;;;;;;;;;5017373;28;20782;-83
2024/02/18 11:31:26;;;;;;;27.80;24.27;;;;;;;;;;5017334;28;20381;-82
2024/02/18 11:33:53;;;;;;;27.25;24.33;;;;;;;;;;5017695;28;20389;-84
2024/02/18 11:36:19;;;;;;;29.77;26.23;;;;;;;;;;5036503;28;20410;-85
2024/02/18 11:38:46;;;;;;;28.73;24.20;;;;;;;;;;5036582;28;20725;-84
2024/02/18 11:41:20;;;;;;;27.27;24.30;;;;;;;;;;5037310;28;20462;-84
2024/02/18 11:43:51;;;;;;;28.15;25.15;;;;;;;;;;5037058;28;20465;-84
2024/02/18 11:46:28;;;;;;;30.58;25.85;;;;;;;;;;5037158;28;20390;-85
2024/02/18 11:48:55;;;;;;;27.75;24.63;;;;;;;;;;5036694;28;20379;-83
2024/02/18 11:51:21;;;;;;;28.65;23.88;;;;;;;;;;5036183;28;20387;-84
2024/02/18 11:53:47;;;;;;;29.25;24.67;;;;;;;;;;5037249;28;20382;-83
2024/02/18 11:56:14;;;;;;;27.33;23.33;;;;;;;;;;5036270;28;20379;-84
2024/02/18 11:58:41;;;;;;;25.35;22.42;;;;;;;;;;5036014;28;20714;-82
2024/02/18 12:01:07;;;;;;;26.42;23.27;;;;;;;;;;5036896;28;20422;-84
2024/02/18 12:03:33;;;;;;;24.20;21.63;;;;;;;;;;5036185;28;20403;-83
2024/02/18 12:06:00;;;;;;;25.13;22.40;;;;;;;;;;5036923;28;20410;-83
2024/02/18 12:08:28;;;;;;;26.30;22.80;;;;;;;;;;5036371;28;20375;-83
2024/02/18 12:10:55;;;;;;;25.42;22.48;;;;;;;;;;5035924;28;20379;-83
2024/02/18 12:13:22;;;;;;;25.93;22.20;;;;;;;;;;5035626;28;20534;-83
2024/02/18 12:15:49;;;;;;;24.13;21.52;;;;;;;;;;5035827;28;20390;-85
2024/02/18 12:18:16;;;;;;;22.48;19.88;;;;;;;;;;5034152;28;20390;-84
2024/02/18 12:20:47;;;;;;;22.88;20.45;;;;;;;;;;5033957;28;20486;-84
2024/02/18 12:23:14;;;;;;;21.23;18.92;;;;;;;;;;5035102;28;20411;-84
2024/02/18 12:25:40;;;;;;;21.98;19.08;;;;;;;;;;5036901;28;20384;-82
2024/02/18 12:28:08;;;;;;;19.55;17.55;;;;;;;;;;5037685;28;20386;-82
2024/02/18 12:30:34;;;;;;;22.88;20.23;;;;;;;;;;5036549;28;20376;-82
2024/02/18 12:33:02;;;;;;;21.92;19.05;;;;;;;;;;5035421;28;20398;-82
2024/02/18 12:35:28;;;;;;;21.35;19.08;;;;;;;;;;5035852;28;20390;-83
2024/02/18 12:37:54;;;;;;;21.23;18.93;;;;;;;;;;5035370;28;20412;-82
2024/02/18 12:40:20;;;;;;;22.15;19.75;;;;;;;;;;5035816;28;20378;-81
2024/02/18 12:42:46;;;;;;;21.83;19.52;;;;;;;;;;5035804;28;20474;-82
2024/02/18 12:45:22;;;;;;;21.98;19.67;;;;;;;;;;5036116;28;20383;-83
2024/02/18 12:47:51;;;;;;;26.58;22.27;;;;;;;;;;5035399;28;20379;-84
2024/02/18 12:50:17;;;;;;;25.88;22.42;;;;;;;;;;5035903;28;20371;-82
2024/02/18 12:52:45;;;;;;;23.63;20.65;;;;;;;;;;5038762;28;20445;-82
2024/02/18 12:55:11;;;;;;;25.77;20.80;;;;;;;;;;5036476;28;20379;-83
2024/02/18 12:57:37;;;;;;;21.92;19.20;;;;;;;;;;5035025;28;20381;-83
2024/02/18 13:00:05;;;;;;;22.20;19.30;;;;;;;;;;5035194;28;20474;-83
2024/02/18 13:02:31;;;;;;;18.13;16.33;;;;;;;;;;5034953;28;20399;-83
2024/02/18 13:04:57;;;;;;;18.50;16.60;;;;;;;;;;5034040;28;20442;-83
2024/02/18 13:07:23;;;;;;;16.73;15.07;;;;;;;;;;5033480;28;20383;-84
2024/02/18 13:09:56;;;;;;;19.90;17.80;;;;;;;;;;5032750;28;20857;-82
2024/02/18 13:12:22;;;;;;;17.92;16.13;;;;;;;;;;5033390;28;20387;-83
2024/02/18 13:14:48;;;;;;;19.88;17.77;;;;;;;;;;5033385;28;20427;-83
2024/02/18 13:17:15;;;;;;;18.88;16.98;;;;;;;;;;5033547;28;20473;-84
2024/02/18 13:19:45;;;;;;;17.95;16.10;;;;;;;;;;5033834;28;20383;-83
2024/02/18 13:22:14;;;;;;;17.80;16.00;;;;;;;;;;5033532;28;20516;-83
2024/02/18 13:24:41;;;;;;;17.58;15.70;;;;;;;;;;5033616;28;20386;-83
2024/02/18 13:27:07;;;;;;;18.17;15.82;;;;;;;;;;5033278;28;20459;-82
2024/02/18 13:29:33;;;;;;;16.40;14.80;;;;;;;;;;5033577;28;20429;-83
2024/02/18 13:31:59;;;;;;;16.88;15.27;;;;;;;;;;5034101;28;20398;-83
2024/02/18 13:34:31;;;;;;;16.60;14.98;;;;;;;;;;5034470;28;20391;-83
2024/02/18 13:36:58;;;;;;;16.75;15.05;;;;;;;;;;5037014;28;20382;-83
2024/02/18 13:39:24;;;;;;;16.42;14.80;;;;;;;;;;5037835;28;20390;-82
2024/02/18 13:41:51;;;;;;;16.55;14.95;;;;;;;;;;5037899;28;20433;-84
2024/02/18 13:44:17;;;;;;;16.25;14.75;;;;;;;;;;5037677;28;20413;-83
2024/02/18 13:46:45;;;;;;;16.10;14.60;;;;;;;;;;5037131;28;20377;-84
2024/02/18 13:49:11;;;;;;;15.85;14.35;;;;;;;;;;5037492;28;20390;-82
2024/02/18 13:51:40;;;;;;;15.80;14.10;;;;;;;;;;5038140;28;20371;-82
2024/02/18 13:54:07;;;;;;;15.73;14.23;;;;;;;;;;5037001;28;20371;-84
2024/02/18 13:56:33;;;;;;;14.95;13.55;;;;;;;;;;5038143;28;20386;-83
2024/02/18 13:58:59;;;;;;;15.05;13.65;;;;;;;;;;5037275;28;20383;-83
2024/02/18 14:01:25;;;;;;;14.93;13.48;;;;;;;;;;5037181;28;20907;-83
2024/02/18 14:03:51;;;;;;;14.07;12.73;;;;;;;;;;5036583;28;20472;-83
2024/02/18 14:06:17;;;;;;;13.80;12.50;;;;;;;;;;5037044;28;20391;-83
2024/02/18 14:08:43;;;;;;;13.25;12.05;;;;;;;;;;5037400;28;20386;-83
2024/02/18 14:11:09;;;;;;;13.95;12.75;;;;;;;;;;5037613;28;20395;-83
2024/02/18 14:13:36;;;;;;;13.70;12.50;;;;;;;;;;5036963;28;20391;-83
2024/02/18 14:16:03;;;;;;;13.70;12.50;;;;;;;;;;5036972;28;20413;-83